Windham, New York
Current Conditions -  °F | °C
As of 2:51 AM on Thursday 23 Oct 2014 (Local Time) from KALB Reporting Station
Moderate Rain Moderate Rain  
Wind Chill: 44°   Ceiling: 2600
Heat Index: 48°   Visibility: 5mi
Dew Point: 44°   Wind: 9mph
Humidity: 86%   Direction: 350°N
Pressure: 29.9"   Gusts: NA
Location:  42.31°N, 74.25°W
Report Text: KALB 230651Z 35008KT 5SM RA BR OVC026 09/07 A2990 RMK AO2 SLP126 P0012 T00890067
Loading
Personal Weather Stations






























Interactive Weather Map
Tropical Storm Tracking
New forecast layout! Learn more

10-Day Weather Forecast

Advertisements
Track Severe Weather on mobile